createdAt,value
2022-08-22T00:02:42.244Z,24.90
2022-08-22T00:02:44.327Z,23.60
2022-08-22T00:02:54.635Z,23.70
2022-08-22T00:03:02.384Z,24.50
2022-08-22T00:03:07.364Z,22.60
2022-08-22T00:03:16.003Z,22.40
2022-08-22T00:03:16.108Z,22.30
2022-08-22T00:05:46.292Z,22.20
2022-08-22T00:08:20.254Z,22.20
2022-08-22T00:10:59.097Z,22.20
2022-08-22T00:13:35.127Z,22.10
2022-08-22T00:16:11.133Z,22.10
2022-08-22T00:18:48.656Z,22.10
2022-08-22T00:21:23.378Z,22.10
2022-08-22T00:23:56.474Z,20.90
2022-08-22T00:26:45.081Z,22.10
2022-08-22T00:29:18.782Z,22.00
2022-08-22T00:31:54.657Z,22.00
2022-08-22T00:34:31.685Z,22.00
2022-08-22T00:37:07.842Z,21.90
2022-08-22T00:39:42.211Z,21.90
2022-08-22T00:42:46.360Z,21.90
2022-08-22T00:45:54.460Z,21.80
2022-08-22T00:48:48.103Z,21.80
2022-08-22T00:51:43.663Z,21.80
2022-08-22T00:54:25.626Z,21.80
2022-08-22T00:57:09.362Z,21.80
2022-08-22T01:00:11.746Z,21.80
2022-08-22T01:03:01.747Z,21.80
2022-08-22T01:05:46.236Z,21.80
2022-08-22T01:08:29.895Z,21.80
2022-08-22T01:11:09.484Z,21.70
2022-08-22T01:13:51.322Z,21.80
2022-08-22T01:16:32.426Z,21.70
2022-08-22T01:19:26.280Z,21.70
2022-08-22T01:22:21.388Z,21.70
2022-08-22T01:25:36.753Z,21.70
2022-08-22T01:28:41.140Z,21.60
2022-08-22T01:31:50.592Z,21.60
2022-08-22T01:34:52.786Z,21.60
2022-08-22T01:38:00.308Z,21.60
2022-08-22T01:41:07.493Z,21.50
2022-08-22T01:44:00.674Z,21.50
2022-08-22T01:46:50.300Z,21.40
2022-08-22T01:49:24.461Z,21.50
2022-08-22T01:52:00.871Z,21.50
2022-08-22T01:54:42.929Z,21.40
2022-08-22T01:57:14.652Z,21.40
2022-08-22T01:59:45.472Z,21.50
2022-08-22T02:02:49.276Z,21.40
2022-08-22T02:05:27.695Z,21.40
2022-08-22T02:08:03.834Z,21.40
2022-08-22T02:10:53.509Z,21.40
2022-08-22T02:13:37.445Z,21.30
2022-08-22T02:16:12.152Z,21.30
2022-08-22T02:18:58.065Z,21.40
2022-08-22T02:21:39.994Z,21.30
2022-08-22T02:24:23.168Z,21.30
2022-08-22T02:27:04.399Z,21.30
2022-08-22T02:29:47.233Z,21.30
2022-08-22T02:32:23.846Z,21.30
2022-08-22T02:35:01.335Z,21.20
2022-08-22T02:37:38.479Z,21.20
2022-08-22T02:40:31.687Z,21.20
2022-08-22T02:43:04.150Z,21.20
2022-08-22T02:45:39.094Z,21.20
2022-08-22T02:48:19.262Z,21.30
2022-08-22T02:50:53.749Z,21.20
2022-08-22T02:53:29.828Z,21.20
2022-08-22T02:56:05.491Z,21.20
2022-08-22T02:58:44.132Z,21.20
2022-08-22T03:01:27.993Z,21.20
2022-08-22T03:04:25.595Z,21.20
2022-08-22T03:07:13.881Z,21.20
2022-08-22T03:09:48.765Z,21.20
2022-08-22T03:12:42.889Z,21.10
2022-08-22T03:15:23.969Z,21.10
2022-08-22T03:17:58.996Z,21.00
2022-08-22T03:20:43.209Z,21.00
2022-08-22T03:23:20.372Z,21.00
2022-08-22T03:25:57.578Z,20.90
2022-08-22T03:28:34.885Z,21.00
2022-08-22T03:31:14.164Z,20.90
2022-08-22T03:33:42.837Z,20.90
2022-08-22T03:36:25.860Z,20.70
2022-08-22T03:39:14.959Z,20.80
2022-08-22T03:42:10.490Z,20.80
2022-08-22T03:45:12.116Z,20.80
2022-08-22T03:48:28.545Z,20.80
2022-08-22T03:51:26.802Z,20.80
2022-08-22T03:54:25.044Z,20.80
2022-08-22T03:57:46.666Z,20.70
2022-08-22T04:00:32.089Z,20.70
2022-08-22T04:03:32.519Z,20.60
2022-08-22T04:06:29.324Z,20.60
2022-08-22T04:09:22.810Z,20.50
2022-08-22T04:12:10.612Z,20.50
2022-08-22T04:15:15.924Z,20.40
2022-08-22T04:18:07.945Z,20.40
2022-08-22T04:21:07.502Z,20.40
2022-08-22T04:24:13.021Z,20.50
2022-08-22T04:26:48.556Z,20.40
2022-08-22T04:29:22.641Z,20.40
2022-08-22T04:31:57.315Z,20.40
2022-08-22T04:34:37.885Z,20.30
2022-08-22T04:37:11.265Z,20.30
2022-08-22T04:39:45.688Z,20.20
2022-08-22T04:42:35.856Z,20.20
2022-08-22T04:45:10.821Z,20.10
2022-08-22T04:47:44.373Z,20.10
2022-08-22T04:50:29.347Z,20.10
2022-08-22T04:53:19.538Z,20.00
2022-08-22T04:56:11.558Z,19.90
2022-08-22T04:58:48.048Z,20.00
2022-08-22T05:01:22.334Z,20.00
2022-08-22T05:03:57.355Z,20.10
2022-08-22T05:06:31.380Z,20.00
2022-08-22T05:09:04.850Z,20.00
2022-08-22T05:11:36.028Z,20.00
2022-08-22T05:14:08.443Z,20.00
2022-08-22T05:16:41.573Z,20.10
2022-08-22T05:19:16.925Z,20.00
2022-08-22T05:21:50.865Z,19.90
2022-08-22T05:24:28.015Z,19.90
2022-08-22T05:26:58.895Z,19.90
2022-08-22T05:29:33.697Z,19.80
2022-08-22T05:32:06.905Z,19.90
2022-08-22T05:34:40.113Z,20.00
2022-08-22T05:37:15.673Z,20.10
2022-08-22T05:39:48.572Z,20.10
2022-08-22T05:42:23.786Z,20.20
2022-08-22T05:47:24.246Z,20.20
2022-08-22T05:50:05.175Z,20.20
2022-08-22T05:52:43.876Z,20.20
2022-08-22T05:55:23.860Z,20.20
2022-08-22T05:58:11.222Z,20.30
2022-08-22T06:00:43.290Z,20.30
2022-08-22T06:03:18.728Z,20.40
2022-08-22T06:05:55.085Z,20.40
2022-08-22T06:08:31.900Z,20.40
2022-08-22T06:11:09.509Z,20.40
2022-08-22T06:13:41.515Z,20.40
2022-08-22T06:16:19.473Z,21.70
2022-08-22T06:18:49.285Z,20.60
2022-08-22T06:21:23.924Z,20.60
2022-08-22T06:24:01.669Z,20.70
2022-08-22T06:26:36.409Z,20.80
2022-08-22T06:29:09.953Z,20.80
2022-08-22T06:31:46.574Z,20.90
2022-08-22T06:34:18.762Z,20.90
2022-08-22T06:36:50.713Z,21.00
2022-08-22T06:39:24.267Z,21.10
2022-08-22T06:41:55.758Z,21.20
2022-08-22T06:44:32.845Z,21.30
2022-08-22T06:47:04.859Z,21.20
2022-08-22T06:49:36.143Z,21.50
2022-08-22T06:52:09.241Z,21.70
2022-08-22T06:54:46.346Z,21.90
2022-08-22T06:57:34.708Z,22.20
2022-08-22T07:00:07.686Z,22.40
2022-08-22T07:02:39.803Z,22.90
2022-08-22T07:05:15.242Z,25.10
2022-08-22T07:07:44.118Z,25.10
2022-08-22T07:10:43.744Z,26.30
2022-08-22T07:13:16.451Z,26.70
2022-08-22T07:18:20.868Z,26.80
2022-08-22T07:20:55.206Z,27.10
2022-08-22T07:23:33.915Z,26.70
2022-08-22T07:26:16.953Z,26.10
2022-08-22T07:28:58.800Z,25.40
2022-08-22T07:31:35.390Z,24.90
2022-08-22T07:34:19.410Z,24.60
2022-08-22T07:36:52.805Z,24.30
2022-08-22T07:39:26.882Z,24.10
2022-08-22T07:42:12.632Z,23.90
2022-08-22T07:45:00.863Z,23.90
2022-08-22T07:47:48.085Z,24.00
2022-08-22T07:50:25.939Z,24.20
2022-08-22T07:52:59.074Z,24.60
2022-08-22T07:55:28.940Z,24.50
2022-08-22T07:58:04.150Z,24.70
2022-08-22T08:00:34.412Z,24.70
2022-08-22T08:03:08.666Z,25.00
2022-08-22T08:05:39.781Z,25.70
2022-08-22T08:08:15.689Z,26.10
2022-08-22T08:10:45.857Z,26.70
2022-08-22T08:13:23.260Z,26.90
2022-08-22T08:15:52.366Z,27.00
2022-08-22T08:18:26.035Z,27.00
2022-08-22T08:20:57.392Z,26.90
2022-08-22T08:23:26.958Z,27.00
2022-08-22T08:26:03.506Z,27.40
2022-08-22T08:28:38.506Z,27.70
2022-08-22T08:31:17.394Z,28.00
2022-08-22T08:33:48.584Z,28.20
2022-08-22T08:36:32.274Z,28.40
2022-08-22T08:39:12.669Z,28.50
2022-08-22T08:42:19.551Z,28.60
2022-08-22T08:45:24.468Z,28.60
2022-08-22T08:48:21.564Z,28.30
2022-08-22T08:51:15.303Z,28.00
2022-08-22T08:54:04.953Z,27.90
2022-08-22T08:56:42.718Z,27.80
2022-08-22T08:59:31.419Z,28.00
2022-08-22T09:28:43.107Z,26.10
2022-08-22T09:39:11.054Z,27.70
2022-08-22T09:42:09.514Z,29.20
2022-08-22T09:56:34.763Z,26.90
2022-08-22T10:02:30.897Z,29.30
2022-08-22T10:05:11.468Z,29.20
2022-08-22T10:08:12.280Z,29.30
2022-08-22T10:11:01.131Z,29.10
2022-08-22T10:28:34.266Z,28.50
2022-08-22T10:31:22.941Z,30.00
2022-08-22T10:34:07.896Z,30.10
2022-08-22T10:36:59.382Z,30.10
2022-08-22T10:39:37.877Z,29.90
2022-08-22T10:42:28.162Z,30.10
2022-08-22T10:45:23.986Z,30.00
2022-08-22T10:48:29.517Z,30.20
2022-08-22T10:51:10.423Z,30.50
2022-08-22T10:53:57.290Z,30.60
2022-08-22T10:56:33.203Z,30.50
2022-08-22T11:03:10.634Z,30.70
2022-08-22T11:13:29.304Z,28.30
2022-08-22T11:16:04.224Z,30.90
2022-08-22T11:19:02.764Z,30.90
2022-08-22T11:21:42.829Z,30.40
2022-08-22T11:24:47.741Z,30.40
2022-08-22T11:27:39.940Z,30.70
2022-08-22T11:30:20.870Z,30.90
2022-08-22T11:36:35.966Z,31.40
2022-08-22T11:39:25.288Z,31.40
2022-08-22T11:42:02.677Z,31.20
2022-08-22T11:47:34.886Z,30.10
2022-08-22T11:50:21.244Z,29.90
2022-08-22T11:56:15.544Z,29.50
2022-08-22T11:58:52.656Z,29.40
2022-08-22T12:01:25.375Z,29.30
2022-08-22T12:34:25.467Z,27.10
2022-08-22T12:37:13.006Z,29.10
2022-08-22T12:40:31.009Z,29.10
2022-08-22T12:43:25.141Z,29.00
2022-08-22T12:46:13.313Z,28.90
2022-08-22T13:03:32.408Z,27.70
2022-08-22T13:06:13.841Z,28.20
2022-08-22T13:31:39.713Z,28.10
2022-08-22T13:38:25.640Z,26.30
2022-08-22T13:44:20.195Z,28.20
2022-08-22T13:51:08.119Z,25.80
2022-08-22T13:53:49.894Z,27.40
2022-08-22T13:56:36.763Z,28.30
2022-08-22T14:04:00.841Z,28.20
2022-08-22T14:07:34.069Z,28.30
2022-08-22T14:13:55.881Z,28.30
2022-08-22T14:20:48.618Z,26.10
2022-08-22T14:23:32.012Z,25.80
2022-08-22T14:30:28.777Z,27.80
2022-08-22T14:33:16.813Z,28.20
2022-08-22T14:35:54.688Z,28.30
2022-08-22T14:38:29.993Z,28.30
2022-08-22T14:41:05.458Z,28.20
2022-08-22T14:43:57.604Z,28.00
2022-08-22T14:46:53.850Z,28.00
2022-08-22T14:50:11.250Z,28.00
2022-08-22T14:52:45.447Z,28.20
2022-08-22T14:55:22.112Z,28.00
2022-08-22T15:02:02.524Z,26.30
2022-08-22T15:04:36.997Z,27.80
2022-08-22T15:10:50.034Z,27.00
2022-08-22T15:13:29.626Z,28.10
2022-08-22T15:16:05.706Z,28.20
2022-08-22T15:18:51.778Z,28.30
2022-08-22T15:21:25.530Z,28.40
2022-08-22T15:23:57.056Z,28.30
2022-08-22T15:26:30.753Z,28.20
2022-08-22T15:29:08.655Z,28.30
2022-08-22T15:31:46.569Z,28.20
2022-08-22T15:34:26.824Z,28.30
2022-08-22T15:37:08.381Z,28.50
2022-08-22T15:40:07.415Z,28.50
2022-08-22T15:42:41.736Z,28.60
2022-08-22T15:45:24.499Z,28.60
2022-08-22T15:47:55.868Z,28.60
2022-08-22T15:50:46.084Z,28.50
2022-08-22T15:53:22.348Z,28.40
2022-08-22T15:56:24.675Z,28.20
2022-08-22T15:59:16.673Z,28.30
2022-08-22T16:01:52.724Z,28.20
2022-08-22T16:04:39.306Z,28.20
2022-08-22T16:07:27.104Z,28.30
2022-08-22T16:10:14.194Z,28.30
2022-08-22T16:12:55.851Z,28.10
2022-08-22T16:25:10.894Z,28.00
2022-08-22T16:27:53.576Z,27.90
2022-08-22T16:30:36.194Z,28.00
2022-08-22T16:33:08.794Z,28.10
2022-08-22T16:36:26.467Z,28.10
2022-08-22T16:38:58.767Z,28.00
2022-08-22T16:41:45.953Z,28.00
2022-08-22T16:44:39.947Z,28.00
2022-08-22T16:47:15.369Z,27.90
2022-08-22T16:50:04.640Z,27.80
2022-08-22T16:52:55.698Z,27.90
2022-08-22T16:55:58.178Z,27.90
2022-08-22T16:59:14.189Z,27.90
2022-08-22T17:02:15.312Z,28.30
2022-08-22T17:04:56.781Z,28.00
2022-08-22T17:07:34.617Z,28.00
2022-08-22T17:10:23.596Z,28.00
2022-08-22T17:13:13.832Z,28.00
2022-08-22T17:15:56.055Z,28.00
2022-08-22T17:18:46.404Z,28.00
2022-08-22T17:52:29.409Z,27.70
2022-08-22T17:58:37.659Z,27.60
2022-08-22T18:01:14.891Z,27.30
2022-08-22T18:03:51.411Z,27.50
2022-08-22T18:06:34.299Z,27.40
2022-08-22T18:09:27.642Z,27.20
2022-08-22T18:12:51.698Z,27.20
2022-08-22T18:15:51.409Z,26.60
2022-08-22T18:18:32.383Z,26.20
2022-08-22T18:28:10.362Z,26.80
2022-08-22T18:30:54.429Z,26.80
2022-08-22T18:33:33.148Z,26.80
2022-08-22T18:36:09.650Z,26.80
2022-08-22T18:38:47.433Z,26.70
2022-08-22T18:49:14.578Z,26.00
2022-08-22T18:51:43.846Z,26.50
2022-08-22T18:54:36.525Z,26.40
2022-08-22T18:57:30.748Z,26.40
2022-08-22T19:00:09.370Z,26.30
2022-08-22T19:02:58.855Z,26.30
2022-08-22T19:05:52.138Z,26.30
2022-08-22T19:08:55.180Z,26.20
2022-08-22T19:11:37.252Z,26.10
2022-08-22T19:14:26.142Z,26.00
2022-08-22T19:17:28.575Z,25.90
2022-08-22T19:20:20.836Z,25.80
2022-08-22T19:22:51.402Z,25.80
2022-08-22T19:25:27.176Z,25.80
2022-08-22T19:28:26.764Z,25.70
2022-08-22T19:31:22.602Z,25.70
2022-08-22T19:34:11.761Z,25.70
2022-08-22T19:36:40.796Z,25.70
2022-08-22T19:39:12.880Z,25.60
2022-08-22T19:42:07.785Z,25.60
2022-08-22T19:44:49.395Z,25.60
2022-08-22T19:47:30.781Z,25.60
2022-08-22T19:50:05.734Z,25.40
2022-08-22T19:53:01.335Z,25.40
2022-08-22T19:55:45.069Z,25.40
2022-08-22T19:58:32.748Z,25.40
2022-08-22T20:01:28.470Z,25.40
2022-08-22T20:04:03.764Z,25.40
2022-08-22T20:06:44.970Z,25.40
2022-08-22T20:09:26.326Z,25.50
2022-08-22T20:12:13.345Z,25.50
2022-08-22T20:14:46.089Z,25.50
2022-08-22T20:20:59.868Z,25.40
2022-08-22T20:23:32.279Z,25.40
2022-08-22T20:26:02.876Z,25.40
2022-08-22T20:28:44.425Z,25.30
2022-08-22T20:31:22.094Z,25.30
2022-08-22T20:33:58.934Z,25.20
2022-08-22T20:36:29.315Z,25.20
2022-08-22T20:39:05.299Z,25.10
2022-08-22T20:41:38.695Z,25.00
2022-08-22T20:44:16.960Z,25.10
2022-08-22T20:46:55.045Z,25.00
2022-08-22T20:49:30.964Z,25.00
2022-08-22T20:52:02.339Z,24.90
2022-08-22T20:54:33.925Z,24.80
2022-08-22T20:57:21.001Z,24.90
2022-08-22T20:59:56.749Z,24.80
2022-08-22T21:02:28.707Z,24.80
2022-08-22T21:05:03.899Z,24.80
2022-08-22T21:07:35.752Z,24.80
2022-08-22T21:10:26.725Z,24.80
2022-08-22T21:13:10.851Z,24.80
2022-08-22T21:15:43.034Z,24.80
2022-08-22T21:18:17.341Z,24.80
2022-08-22T21:20:45.525Z,24.70
2022-08-22T21:23:16.013Z,24.70
2022-08-22T21:25:56.685Z,24.70
2022-08-22T21:28:36.704Z,24.60
2022-08-22T21:31:16.086Z,24.60
2022-08-22T21:33:47.098Z,24.60
2022-08-22T21:36:17.817Z,24.60
2022-08-22T21:38:52.575Z,24.60
2022-08-22T21:41:29.535Z,24.60
2022-08-22T21:43:58.074Z,24.60
2022-08-22T21:46:30.355Z,24.60
2022-08-22T21:49:03.102Z,24.60
2022-08-22T21:51:42.808Z,24.60
2022-08-22T21:54:22.192Z,24.60
2022-08-22T21:57:07.697Z,24.40
2022-08-22T21:59:51.934Z,24.30
2022-08-22T22:02:36.436Z,24.10
2022-08-22T22:05:11.742Z,23.90
2022-08-22T22:07:46.102Z,23.80
2022-08-22T22:10:17.695Z,23.80
2022-08-22T22:12:48.325Z,23.80
2022-08-22T22:15:19.645Z,23.70
2022-08-22T22:17:50.120Z,23.70
2022-08-22T22:20:19.853Z,23.70
2022-08-22T22:22:51.771Z,23.70
2022-08-22T22:25:40.075Z,23.70
2022-08-22T22:28:16.017Z,23.50
2022-08-22T22:30:45.615Z,23.40
2022-08-22T22:33:16.291Z,23.40
2022-08-22T22:35:44.526Z,23.30
2022-08-22T22:38:14.664Z,23.30
2022-08-22T22:40:43.260Z,23.20
2022-08-22T22:43:17.448Z,23.20
2022-08-22T22:45:45.983Z,23.10
2022-08-22T22:48:24.288Z,23.10
2022-08-22T22:50:53.272Z,23.00
2022-08-22T22:53:28.617Z,23.00
2022-08-22T22:56:09.366Z,23.00
2022-08-22T22:58:40.447Z,22.90
2022-08-22T23:01:10.248Z,22.80
2022-08-22T23:03:40.576Z,22.90
2022-08-22T23:06:15.209Z,22.90
2022-08-22T23:08:43.942Z,22.90
2022-08-22T23:11:14.024Z,22.80
2022-08-22T23:13:43.276Z,22.70
2022-08-22T23:16:15.797Z,22.70
2022-08-22T23:18:46.909Z,22.70
2022-08-22T23:21:17.835Z,22.60
2022-08-22T23:26:18.724Z,22.60
2022-08-22T23:28:47.286Z,21.50
2022-08-22T23:31:18.043Z,22.60
2022-08-22T23:36:19.686Z,22.50
2022-08-22T23:38:49.563Z,22.60
2022-08-22T23:41:19.474Z,22.70
2022-08-22T23:43:49.944Z,22.80
2022-08-22T23:46:20.346Z,22.80
2022-08-22T23:48:50.475Z,22.90
2022-08-22T23:51:23.489Z,23.00
2022-08-22T23:53:52.337Z,23.00
2022-08-22T23:56:24.065Z,23.10
2022-08-22T23:58:53.168Z,23.10
